Time;durP1;ratioP1;P1;durP2;ratioP2;P2;SDS_P1;SDS_P2;PMS_P1;PMS_P2;Temp;Humidity;BMP_temperature;BMP_pressure;BME280_temperature;BME280_humidity;BME280_pressure;Samples;Min_cycle;Max_cycle;Signal;HPM_P1;HPM_P2
2022/01/22 00:00:47;;;;;;;6.82;1.85;;;;;;;25.27;28.31;95502.72;5007692;28;20038;-40
2022/01/22 00:03:12;;;;;;;5.35;2.00;;;;;;;25.27;28.23;95500.06;5007486;28;20045;-40
2022/01/22 00:05:50;;;;;;;6.32;1.88;;;;;;;25.30;27.69;95491.56;5006981;28;20038;-40
2022/01/22 00:08:16;;;;;;;5.72;1.98;;;;;;;25.34;27.95;95495.28;5005556;28;20065;-40
2022/01/22 00:10:44;;;;;;;5.63;2.00;;;;;;;25.34;27.53;95492.63;5008404;28;20034;-40
2022/01/22 00:15:49;;;;;;;5.53;1.92;;;;;;;25.25;27.79;95478.25;5008326;28;20038;-40
2022/01/22 00:18:21;;;;;;;6.88;2.00;;;;;;;25.27;27.88;95475.31;5006560;28;20030;-41
2022/01/22 00:20:47;;;;;;;5.45;1.70;;;;;;;25.23;28.00;95480.38;5004575;28;20088;-40
2022/01/22 00:23:12;;;;;;;9.30;1.98;;;;;;;25.27;28.29;95484.09;5004993;28;20046;-41
2022/01/22 00:25:38;;;;;;;4.60;1.80;;;;;;;25.30;27.71;95483.56;4990691;28;20035;-40
2022/01/22 00:28:06;;;;;;;6.28;2.10;;;;;;;25.28;27.91;95476.91;5003750;28;20034;-40
2022/01/22 00:30:41;;;;;;;5.07;1.92;;;;;;;25.30;28.30;95472.94;5007885;28;20065;-40
2022/01/22 00:33:16;;;;;;;5.85;2.10;;;;;;;25.31;28.03;95465.72;5008065;28;20129;-40
2022/01/22 00:35:43;;;;;;;4.07;1.80;;;;;;;25.30;27.87;95462.28;5015030;28;20040;-40
2022/01/22 00:38:08;;;;;;;7.93;1.95;;;;;;;25.27;27.99;95460.13;5007006;28;20120;-40
2022/01/22 00:40:34;;;;;;;4.25;1.95;;;;;;;25.34;28.15;95466.00;4996103;28;20048;-40
2022/01/22 00:42:59;;;;;;;5.72;1.70;;;;;;;25.28;27.72;95463.59;5003687;28;20046;-40
2022/01/22 00:45:27;;;;;;;7.63;2.25;;;;;;;25.30;28.24;95464.13;5008454;28;20030;-40
2022/01/22 00:47:52;;;;;;;5.88;1.92;;;;;;;25.30;28.17;95466.78;5006739;28;20041;-40
2022/01/22 00:50:39;;;;;;;6.93;1.85;;;;;;;25.23;27.94;95475.03;5006962;28;20106;-40
2022/01/22 00:53:04;;;;;;;7.85;1.92;;;;;;;25.31;27.98;95466.53;5004149;28;20057;-40
2022/01/22 00:55:32;;;;;;;5.53;1.70;;;;;;;25.27;27.95;95460.13;4997601;28;20049;-40
2022/01/22 00:57:58;;;;;;;7.65;1.85;;;;;;;25.25;28.00;95453.50;5024646;28;20131;-40
2022/01/22 01:00:25;;;;;;;7.78;2.10;;;;;;;25.26;28.25;95457.72;5008197;28;20033;-41
2022/01/22 01:02:52;;;;;;;6.25;1.70;;;;;;;25.18;27.97;95453.69;5024116;28;20049;-40
2022/01/22 01:05:22;;;;;;;7.88;1.98;;;;;;;25.17;28.42;95452.91;4991800;28;20037;-40
2022/01/22 01:07:51;;;;;;;6.68;1.80;;;;;;;25.24;28.20;95455.31;5023759;28;20060;-40
2022/01/22 01:10:20;;;;;;;6.97;1.95;;;;;;;25.22;28.20;95453.97;4991844;28;20044;-40
2022/01/22 01:12:49;;;;;;;4.05;1.90;;;;;;;25.21;27.99;95450.53;5023667;28;20063;-41
2022/01/22 01:15:34;;;;;;;5.40;1.60;;;;;;;25.21;27.98;95447.84;5032989;28;20037;-40
2022/01/22 01:34:30;;;;;;;6.82;1.80;;;;;;;25.18;27.79;95454.50;5011177;28;20093;-40
2022/01/22 01:36:55;;;;;;;7.93;1.95;;;;;;;25.23;28.14;95450.28;4970763;28;20033;-40
2022/01/22 01:39:29;;;;;;;6.35;1.95;;;;;;;25.14;28.09;95448.09;5037283;28;20037;-40
2022/01/22 01:42:12;;;;;;;9.00;2.10;;;;;;;25.18;28.29;95438.50;5001496;28;20125;-40
2022/01/22 01:44:39;;;;;;;6.65;1.70;;;;;;;25.16;28.33;95440.66;5010559;28;20064;-40
2022/01/22 01:47:06;;;;;;;6.53;1.83;;;;;;;25.20;28.04;95454.22;4991132;28;20081;-40
2022/01/22 01:49:36;;;;;;;8.70;1.75;;;;;;;25.17;28.06;95455.56;5022392;28;20041;-40
2022/01/22 01:52:04;;;;;;;6.45;1.90;;;;;;;25.22;28.30;95460.09;5002134;28;20071;-41
2022/01/22 01:54:59;;;;;;;7.60;1.77;;;;;;;25.18;28.04;95462.47;5014976;28;20045;-40
2022/01/22 01:59:51;;;;;;;4.85;1.73;;;;;;;25.17;28.25;95462.75;5005875;28;20057;-41
2022/01/22 02:02:17;;;;;;;8.60;2.00;;;;;;;25.15;28.29;95454.22;4988747;28;20065;-41
2022/01/22 02:04:45;;;;;;;6.32;2.00;;;;;;;25.15;28.23;95462.19;4997395;28;20029;-41
2022/01/22 02:07:20;;;;;;;8.73;2.13;;;;;;;25.10;28.43;95464.88;5009799;28;20124;-41
2022/01/22 02:09:45;;;;;;;6.95;1.83;;;;;;;25.15;28.28;95459.53;5005963;28;20041;-41
2022/01/22 02:12:34;;;;;;;5.90;1.83;;;;;;;25.15;28.15;95463.03;5006292;28;20160;-40
2022/01/22 02:26:04;;;;;;;7.30;2.10;;;;;;;25.14;28.25;95449.97;4975417;28;20064;-41
2022/01/22 02:28:29;;;;;;;5.15;1.60;;;;;;;25.18;28.17;95454.50;4999965;28;20129;-41
2022/01/22 02:31:03;;;;;;;6.22;1.75;;;;;;;25.12;28.40;95452.09;4958389;28;20042;-41
2022/01/22 02:33:39;;;;;;;8.40;1.85;;;;;;;25.16;28.10;95447.84;4969491;28;20046;-40
2022/01/22 02:36:26;;;;;;;7.38;1.83;;;;;;;25.18;27.90;95456.38;4977635;28;20041;-40
2022/01/22 02:41:25;;;;;;;5.50;1.60;;;;;;;25.09;28.50;95441.97;4964152;28;20069;-41
2022/01/22 02:44:21;;;;;;;6.57;1.70;;;;;;;25.19;28.10;95452.66;4988832;28;20042;-41
2022/01/22 02:46:50;;;;;;;5.22;1.73;;;;;;;25.15;28.09;95456.88;4906742;29;20044;-41
2022/01/22 02:49:15;;;;;;;7.72;1.90;;;;;;;25.13;27.83;95459.00;4922659;29;20062;-41
2022/01/22 02:51:43;;;;;;;5.53;1.70;;;;;;;25.08;28.18;95451.03;4905967;29;20044;-40
2022/01/22 02:54:09;;;;;;;9.35;1.95;;;;;;;25.09;28.23;95453.44;4915402;29;20166;-41
2022/01/22 02:56:42;;;;;;;8.75;2.00;;;;;;;25.11;28.22;95456.63;4876138;29;20112;-41
2022/01/22 02:59:10;;;;;;;4.07;1.52;;;;;;;25.16;28.24;95456.63;4910393;29;20048;-41
2022/01/22 03:01:35;;;;;;;5.75;1.60;;;;;;;25.12;28.21;95452.88;4925855;29;20044;-41
2022/01/22 03:04:01;;;;;;;4.88;1.60;;;;;;;25.09;28.21;95452.63;4944508;28;20102;-41
2022/01/22 03:06:26;;;;;;;6.00;1.60;;;;;;;25.10;28.00;95454.22;4936314;28;20052;-41
2022/01/22 03:08:52;;;;;;;5.97;1.70;;;;;;;25.14;28.23;95456.09;4940937;28;20039;-41
2022/01/22 03:11:24;;;;;;;9.27;1.80;;;;;;;25.12;28.04;95462.75;4920983;29;20051;-41
2022/01/22 03:14:42;;;;;;;8.20;1.98;;;;;;;25.06;28.22;95467.25;4930358;29;20039;-40
2022/01/22 03:16:59;;;;;;;7.25;2.20;;;;;;;25.12;28.40;95470.72;4933980;28;20046;-40
2022/01/22 03:20:00;;;;;;;6.72;1.95;;;;;;;25.11;28.16;95475.25;5018882;28;20128;-41
2022/01/22 03:22:42;;;;;;;5.50;1.60;;;;;;;25.12;28.30;95468.06;5005399;28;20030;-40
2022/01/22 03:27:54;;;;;;;4.90;1.77;;;;;;;25.08;28.08;95461.69;5002824;28;20040;-41
2022/01/22 03:30:22;;;;;;;6.35;1.92;;;;;;;25.06;28.04;95461.16;5008865;28;20068;-41
2022/01/22 03:32:51;;;;;;;8.98;1.90;;;;;;;25.07;28.19;95462.72;5010795;28;20038;-41
2022/01/22 03:38:05;;;;;;;6.82;1.52;;;;;;;25.02;28.37;95463.53;4999742;28;20038;-41
2022/01/22 03:40:33;;;;;;;9.15;1.80;;;;;;;25.06;28.14;95463.81;4964857;28;20050;-41
2022/01/22 03:42:59;;;;;;;8.35;1.98;;;;;;;25.04;28.11;95457.94;4986173;28;20034;-41
2022/01/22 03:45:27;;;;;;;6.70;1.73;;;;;;;25.06;28.22;95461.94;4953627;28;20081;-40
2022/01/22 03:47:55;;;;;;;9.20;1.70;;;;;;;25.06;28.22;95448.63;4985681;28;20120;-40
2022/01/22 03:50:21;;;;;;;8.77;1.92;;;;;;;25.12;28.26;95457.41;4982454;28;20042;-39
2022/01/22 03:52:51;;;;;;;10.18;1.70;;;;;;;25.05;28.15;95451.53;4979741;28;20049;-40
2022/01/22 03:55:45;;;;;;;6.82;1.80;;;;;;;25.10;28.29;95454.22;4969962;28;20140;-40
2022/01/22 03:58:14;;;;;;;7.80;1.60;;;;;;;25.05;28.42;95462.19;4974091;28;20251;-40
2022/01/22 04:00:39;;;;;;;6.72;1.80;;;;;;;25.06;28.28;95458.47;4986608;28;20150;-40
2022/01/22 04:03:28;;;;;;;6.30;1.50;;;;;;;25.02;28.31;95462.69;4980226;28;20042;-40
2022/01/22 04:08:39;;;;;;;9.05;1.92;;;;;;;25.06;28.54;95461.16;4951241;28;20046;-40
2022/01/22 04:11:21;;;;;;;4.65;1.40;;;;;;;25.04;28.42;95463.28;4984130;28;20081;-40
2022/01/22 04:13:50;;;;;;;8.90;1.50;;;;;;;24.99;28.52;95469.38;5018785;28;20045;-40
2022/01/22 04:16:17;;;;;;;5.05;1.52;;;;;;;24.94;28.37;95459.53;5007992;28;20038;-39
2022/01/22 04:27:09;;;;;;;4.03;1.52;;;;;;;24.95;28.24;95452.31;5000941;28;20045;-39
2022/01/22 04:29:42;;;;;;;7.68;1.70;;;;;;;25.01;28.29;95456.59;4999133;28;20069;-40
2022/01/22 04:32:10;;;;;;;7.45;1.38;;;;;;;24.98;28.21;95459.78;5003307;28;20060;-40
2022/01/22 04:34:36;;;;;;;5.68;1.90;;;;;;;25.00;28.22;95454.19;5015022;28;20029;-40
2022/01/22 04:37:01;;;;;;;7.00;1.58;;;;;;;24.97;28.52;95453.66;4987704;28;20049;-40
2022/01/22 04:39:27;;;;;;;7.20;1.50;;;;;;;24.97;28.49;95458.97;5008470;28;20116;-40
2022/01/22 04:41:56;;;;;;;5.32;1.50;;;;;;;24.96;28.15;95459.25;5000696;28;20042;-40
2022/01/22 04:44:29;;;;;;;2.25;1.23;;;;;;;25.03;28.11;95462.44;5012674;28;20033;-40
2022/01/22 04:55:02;;;;;;;4.45;1.63;;;;;;;24.98;27.98;95447.28;5007239;28;20049;-40
2022/01/22 04:57:29;;;;;;;4.43;1.33;;;;;;;24.97;27.87;95440.34;5006346;28;20109;-40
2022/01/22 04:59:55;;;;;;;3.20;1.40;;;;;;;25.03;27.83;95445.69;5007479;28;20056;-39
2022/01/22 05:02:20;;;;;;;4.18;1.40;;;;;;;25.01;28.02;95443.28;5006706;28;20037;-40
2022/01/22 05:04:45;;;;;;;8.63;1.42;;;;;;;25.03;27.84;95443.03;5019964;28;20051;-40
2022/01/22 05:07:11;;;;;;;6.05;1.33;;;;;;;25.02;27.82;95439.56;5005760;28;20033;-40
2022/01/22 05:09:36;;;;;;;8.30;1.85;;;;;;;24.98;27.60;95449.94;5015724;28;20069;-40
2022/01/22 05:12:06;;;;;;;4.53;1.65;;;;;;;24.94;27.96;95450.72;4985510;28;20041;-40
2022/01/22 05:14:40;;;;;;;5.30;1.48;;;;;;;24.95;28.07;95453.13;4993796;28;20045;-40
2022/01/22 05:17:07;;;;;;;2.78;1.15;;;;;;;24.92;27.74;95458.16;5005895;28;20072;-39
2022/01/22 05:22:07;;;;;;;3.60;1.50;;;;;;;24.97;27.88;95466.97;4984370;28;20103;-40
2022/01/22 05:24:39;;;;;;;4.13;1.20;;;;;;;24.95;27.94;95463.75;5015954;28;20045;-40
2022/01/22 05:37:41;;;;;;;3.20;1.30;;;;;;;24.94;28.11;95464.84;5005297;28;20068;-41
2022/01/22 05:40:07;;;;;;;4.57;1.40;;;;;;;24.95;27.77;95465.63;5005931;28;20033;-41
2022/01/22 05:42:36;;;;;;;5.57;1.48;;;;;;;24.92;27.91;95458.97;5008510;28;20120;-39
2022/01/22 05:45:05;;;;;;;3.88;1.50;;;;;;;24.90;28.12;95469.09;5007200;28;20105;-39
2022/01/22 05:47:30;;;;;;;3.55;1.20;;;;;;;24.93;28.18;95471.22;5005676;28;20044;-39
2022/01/22 05:49:56;;;;;;;4.65;1.23;;;;;;;24.92;28.01;95468.81;5006888;28;20037;-39
2022/01/22 05:52:42;;;;;;;2.88;1.17;;;;;;;24.91;27.88;95472.53;5008685;28;20030;-39
2022/01/22 06:00:21;;;;;;;3.03;1.05;;;;;;;24.91;28.18;95477.88;5007450;28;20068;-39
2022/01/22 06:02:57;;;;;;;6.00;1.50;;;;;;;24.90;28.17;95478.91;5009197;28;20033;-39
2022/01/22 06:05:23;;;;;;;8.00;1.63;;;;;;;24.91;27.58;95483.19;5015379;28;20108;-39
2022/01/22 06:07:48;;;;;;;4.07;1.20;;;;;;;24.92;27.77;95479.44;5008166;28;20037;-39
2022/01/22 06:10:17;;;;;;;4.75;1.20;;;;;;;24.94;27.89;95482.66;5006371;28;20042;-39
2022/01/22 06:13:09;;;;;;;4.22;1.20;;;;;;;24.92;27.61;95482.94;5012810;28;20033;-39
2022/01/22 06:15:34;;;;;;;3.72;1.20;;;;;;;25.00;27.47;95492.25;4996853;28;20053;-39
2022/01/22 06:17:59;;;;;;;5.80;1.55;;;;;;;24.99;27.51;95488.00;5003321;28;20057;-38
2022/01/22 06:20:25;;;;;;;2.53;1.17;;;;;;;24.98;27.42;95483.75;5020449;28;20041;-39
2022/01/22 06:22:50;;;;;;;5.43;1.40;;;;;;;25.01;27.49;95485.06;5005277;28;20088;-39
2022/01/22 06:25:16;;;;;;;4.25;1.23;;;;;;;25.00;27.26;95486.13;5007895;28;20057;-38
2022/01/22 06:27:41;;;;;;;3.28;1.40;;;;;;;25.00;27.16;95483.47;4986960;28;20046;-38
2022/01/22 06:30:12;;;;;;;4.13;1.20;;;;;;;24.91;27.38;95489.31;5001463;28;20049;-39
2022/01/22 06:32:40;;;;;;;6.20;1.30;;;;;;;24.94;27.22;95483.47;5015771;28;20057;-39
2022/01/22 06:35:06;;;;;;;5.43;1.10;;;;;;;24.95;27.10;95487.72;5010530;28;20045;-38
2022/01/22 06:37:32;;;;;;;7.13;1.42;;;;;;;25.01;27.31;95487.72;5013073;28;20068;-39
2022/01/22 06:41:44;;;;;;;2.72;1.02;;;;;;;24.99;27.04;95490.66;4996764;28;20132;-39
2022/01/22 06:42:48;;;;;;;3.40;1.20;;;;;;;25.05;26.97;95486.16;5009721;28;20037;-39
2022/01/22 06:45:18;;;;;;;5.80;1.23;;;;;;;24.95;27.14;95494.91;4972988;28;20036;-38
2022/01/22 06:47:46;;;;;;;2.80;1.10;;;;;;;24.92;27.36;95495.41;5017317;28;20049;-38
2022/01/22 06:50:11;;;;;;;3.35;1.05;;;;;;;24.94;27.42;95493.28;5008699;28;20041;-38
2022/01/22 06:52:38;;;;;;;4.60;1.30;;;;;;;24.97;27.36;95496.22;5008300;28;20045;-38
2022/01/22 06:55:19;;;;;;;3.40;1.10;;;;;;;24.93;27.51;95499.69;4990582;28;20022;-39
2022/01/22 06:57:47;;;;;;;3.35;1.17;;;;;;;24.95;27.85;95502.88;5041725;28;20032;-39
2022/01/22 07:00:15;;;;;;;4.55;1.15;;;;;;;24.92;27.95;95509.53;5023204;28;20030;-39
2022/01/22 07:02:41;;;;;;;8.32;1.27;;;;;;;24.96;27.50;95517.81;5016948;28;20045;-38
2022/01/22 07:05:07;;;;;;;5.63;1.23;;;;;;;25.00;27.29;95512.72;5009879;28;20124;-39
2022/01/22 07:07:35;;;;;;;6.55;1.23;;;;;;;24.99;27.93;95517.25;5011318;28;20038;-39
2022/01/22 07:10:03;;;;;;;9.35;1.42;;;;;;;24.97;27.60;95514.84;5018741;28;20037;-39
2022/01/22 07:12:30;;;;;;;4.35;1.20;;;;;;;24.98;28.06;95518.34;4988050;28;20038;-39
2022/01/22 07:14:56;;;;;;;3.90;1.10;;;;;;;24.98;27.92;95527.13;5008336;28;20154;-39
2022/01/22 07:17:36;;;;;;;3.03;1.10;;;;;;;25.03;27.93;95523.66;5012625;28;20030;-39
2022/01/22 07:20:13;;;;;;;12.02;1.38;;;;;;;24.98;27.92;95527.13;5007511;28;20042;-39
2022/01/22 07:22:52;;;;;;;8.70;1.35;;;;;;;24.97;27.85;95528.16;4997097;28;20041;-39
2022/01/22 07:25:17;;;;;;;8.52;1.40;;;;;;;24.98;28.20;95531.63;4994013;28;20038;-38
2022/01/22 07:27:53;;;;;;;6.45;1.42;;;;;;;24.95;28.14;95526.84;5014176;28;20040;-39
2022/01/22 07:30:19;;;;;;;3.80;1.23;;;;;;;24.98;27.72;95527.13;5041619;28;20038;-39
2022/01/22 07:32:45;;;;;;;6.50;1.60;;;;;;;25.00;27.72;95539.34;4992717;28;20022;-39
2022/01/22 07:35:18;;;;;;;9.70;1.70;;;;;;;24.93;29.30;95540.38;5020717;28;20030;-39
2022/01/22 07:37:45;;;;;;;4.97;1.52;;;;;;;24.97;28.61;95544.13;4996023;28;20113;-38
2022/01/22 07:40:11;;;;;;;5.22;1.50;;;;;;;25.00;28.21;95544.66;5014026;28;20099;-39
2022/01/22 07:42:37;;;;;;;10.40;1.90;;;;;;;25.02;28.31;95550.53;5014897;28;20104;-38
2022/01/22 07:45:27;;;;;;;10.07;1.60;;;;;;;24.99;28.46;95559.84;5011012;28;20046;-38
2022/01/22 07:47:52;;;;;;;;;;;;;;;25.46;27.70;95548.28;4972274;28;20167;-39
2022/01/22 07:50:17;;;;;;;12.32;1.85;;;;;;;25.09;28.01;95549.25;5010199;28;19948;-39
2022/01/22 07:52:43;;;;;;;9.77;1.75;;;;;;;25.02;27.90;95543.38;4994630;28;20061;-39
2022/01/22 07:55:11;;;;;;;7.82;2.03;;;;;;;25.06;27.60;95551.63;5005523;28;20041;-39
2022/01/22 07:57:41;;;;;;;9.40;1.70;;;;;;;24.94;28.03;95552.66;5001529;28;20041;-39
2022/01/22 08:00:10;;;;;;;11.25;2.13;;;;;;;24.96;27.76;95555.06;4991066;28;20112;-39
2022/01/22 08:02:36;;;;;;;8.57;1.60;;;;;;;24.96;28.05;95555.84;4984098;28;20038;-38
2022/01/22 08:05:01;;;;;;;6.47;1.60;;;;;;;25.00;27.71;95544.66;5003351;28;20049;-39
2022/01/22 08:07:28;;;;;;;6.00;1.88;;;;;;;24.98;27.80;95548.41;5005424;28;20124;-39
2022/01/22 08:09:53;;;;;;;9.90;1.73;;;;;;;24.97;27.87;95552.09;5005662;28;20046;-39
2022/01/22 08:12:19;;;;;;;3.65;1.30;;;;;;;24.95;27.94;95548.91;4985725;28;20076;-39
2022/01/22 08:14:53;;;;;;;6.32;1.85;;;;;;;24.98;27.90;95548.41;4989056;28;20038;-39
2022/01/22 08:17:19;;;;;;;5.95;1.48;;;;;;;25.00;27.71;95545.47;5009436;28;20080;-39
2022/01/22 08:19:46;;;;;;;6.45;1.85;;;;;;;24.92;27.90;95548.63;5008224;28;20107;-38
2022/01/22 08:22:12;;;;;;;6.25;1.42;;;;;;;24.91;28.11;95547.84;5009879;28;20037;-39
2022/01/22 08:24:37;;;;;;;7.95;1.70;;;;;;;24.98;28.14;95550.28;5010329;28;20118;-38
2022/01/22 08:27:11;;;;;;;6.90;1.70;;;;;;;24.93;27.94;95551.03;5013278;28;20037;-39
2022/01/22 08:29:49;;;;;;;4.68;1.50;;;;;;;24.98;28.28;95556.38;4999922;28;20034;-39
2022/01/22 08:37:35;;;;;;;7.95;1.65;;;;;;;24.95;28.48;95575.53;5009397;28;20056;-39
2022/01/22 08:40:05;;;;;;;6.13;1.70;;;;;;;24.94;28.22;95571.28;5039537;28;20033;-39
2022/01/22 08:42:41;;;;;;;9.15;1.80;;;;;;;24.92;28.31;95570.72;5011449;28;20029;-39
2022/01/22 08:45:09;;;;;;;6.70;1.50;;;;;;;24.94;28.53;95576.59;4992481;28;20030;-38
2022/01/22 08:47:39;;;;;;;5.68;1.65;;;;;;;24.88;28.59;95579.47;5022711;28;20029;-39
2022/01/22 08:50:05;;;;;;;8.88;1.90;;;;;;;24.86;28.42;95576.28;5015111;28;20034;-39
2022/01/22 08:52:35;;;;;;;7.22;1.40;;;;;;;24.86;28.63;95585.06;5010443;28;20080;-39
2022/01/22 08:55:24;;;;;;;6.55;1.75;;;;;;;24.89;28.83;95576.56;5010473;28;20033;-39
2022/01/22 08:57:51;;;;;;;10.73;1.80;;;;;;;24.92;28.64;95568.06;4957200;28;20050;-39
2022/01/22 09:00:20;;;;;;;7.53;1.50;;;;;;;24.90;28.66;95567.53;4971229;28;20045;-39
2022/01/22 09:02:47;;;;;;;4.47;1.33;;;;;;;24.91;28.74;95563.78;5008197;28;20049;-39
2022/01/22 09:05:17;;;;;;;12.07;2.00;;;;;;;24.91;29.12;95561.13;4976172;28;20062;-39
2022/01/22 09:07:45;;;;;;;9.05;2.03;;;;;;;24.92;28.78;95561.94;5011958;28;20052;-39
2022/01/22 09:10:20;;;;;;;10.20;2.25;;;;;;;24.90;28.77;95556.06;4991547;28;20034;-39
2022/01/22 09:12:45;;;;;;;6.22;1.88;;;;;;;24.94;28.58;95565.94;4992550;28;20042;-39
2022/01/22 09:15:11;;;;;;;8.55;1.88;;;;;;;24.95;28.79;95562.22;5009732;28;20038;-39
2022/01/22 09:17:36;;;;;;;9.95;1.90;;;;;;;24.93;28.84;95561.69;4999773;28;20108;-39
2022/01/22 09:20:09;;;;;;;12.85;1.85;;;;;;;24.96;29.13;95560.38;4999502;28;20037;-39
2022/01/22 09:22:37;;;;;;;7.93;1.75;;;;;;;24.97;28.62;95567.28;5001554;28;20064;-39
2022/01/22 09:25:15;;;;;;;7.60;2.00;;;;;;;24.95;29.36;95567.53;5005136;28;20049;-39
2022/01/22 09:27:44;;;;;;;11.52;2.22;;;;;;;24.92;29.31;95570.72;4998004;28;20046;-39
2022/01/22 09:30:09;;;;;;;9.65;2.00;;;;;;;24.92;29.35;95570.72;4989655;28;20038;-39
2022/01/22 09:32:36;;;;;;;8.57;1.90;;;;;;;24.88;29.55;95582.94;4985619;28;20045;-39
2022/01/22 09:35:01;;;;;;;7.25;1.75;;;;;;;24.90;29.64;95588.00;5020735;28;20041;-39
2022/01/22 09:37:28;;;;;;;11.20;2.10;;;;;;;24.89;29.58;95587.22;4982705;28;20037;-40
2022/01/22 09:39:56;;;;;;;9.15;1.92;;;;;;;24.90;29.72;95588.81;4988825;28;20046;-39
2022/01/22 09:42:25;;;;;;;7.13;1.75;;;;;;;24.90;29.62;95588.00;4978843;28;20038;-39
2022/01/22 09:44:50;;;;;;;8.57;2.00;;;;;;;24.97;29.75;95586.69;4987315;28;20213;-39
2022/01/22 09:47:21;;;;;;;8.57;1.83;;;;;;;24.90;29.90;95588.00;4966221;28;20038;-40
2022/01/22 09:49:48;;;;;;;4.97;1.50;;;;;;;24.95;29.88;95590.69;4991005;28;20037;-40
2022/01/22 09:52:16;;;;;;;9.38;1.60;;;;;;;24.94;30.39;95587.25;4990851;28;20030;-39
2022/01/22 09:54:44;;;;;;;7.45;1.90;;;;;;;24.95;30.00;95591.47;4991057;28;20035;-40
2022/01/22 09:57:16;;;;;;;9.15;1.80;;;;;;;24.94;29.44;95589.06;4992064;28;20034;-40
2022/01/22 09:59:42;;;;;;;8.85;1.73;;;;;;;24.95;29.54;95593.34;5001509;28;20048;-40
2022/01/22 10:02:18;;;;;;;8.00;1.60;;;;;;;24.91;29.95;95595.72;4992386;28;20035;-40
2022/01/22 10:04:48;;;;;;;9.57;2.05;;;;;;;24.94;29.99;95595.22;4992503;28;20057;-40
2022/01/22 10:07:23;;;;;;;5.63;1.65;;;;;;;24.96;30.38;95594.97;4976425;28;20025;-47
2022/01/22 10:10:05;;;;;;;6.40;1.80;;;;;;;24.89;29.94;95597.84;4980973;28;20046;-53
2022/01/22 10:12:37;;;;;;;7.43;1.70;;;;;;;24.95;30.34;95590.69;4948390;28;20038;-53
2022/01/22 10:15:17;;;;;;;7.07;1.80;;;;;;;25.00;29.77;95592.56;4981356;28;20038;-52
2022/01/22 10:18:02;;;;;;;5.22;1.65;;;;;;;25.11;29.87;95602.19;4988407;28;20038;-52
2022/01/22 10:20:42;;;;;;;6.05;1.75;;;;;;;25.04;30.29;95596.31;4994803;28;20037;-52
2022/01/22 10:23:25;;;;;;;8.40;1.60;;;;;;;25.04;30.51;95602.44;4983674;28;20042;-49
2022/01/22 10:26:04;;;;;;;7.53;2.13;;;;;;;25.00;30.76;95601.38;4958822;28;20053;-52
2022/01/22 10:28:39;;;;;;;9.50;1.80;;;;;;;25.00;30.38;95611.19;4998403;28;20034;-49
2022/01/22 10:31:08;;;;;;;5.95;1.75;;;;;;;24.99;30.48;95602.41;4992924;28;20030;-53
2022/01/22 10:33:35;;;;;;;9.15;2.15;;;;;;;24.97;30.56;95609.84;4978828;28;20045;-52
2022/01/22 10:36:19;;;;;;;6.53;1.55;;;;;;;25.01;30.52;95602.16;4972880;28;20130;-51
2022/01/22 10:38:47;;;;;;;8.95;2.08;;;;;;;24.92;30.73;95600.00;4981325;28;20034;-53
2022/01/22 10:41:16;;;;;;;5.20;1.58;;;;;;;24.92;30.69;95594.69;4988644;28;20034;-51
2022/01/22 10:43:53;;;;;;;7.20;1.80;;;;;;;24.94;30.74;95583.75;5001142;28;20045;-51
2022/01/22 10:46:22;;;;;;;6.28;1.85;;;;;;;24.97;30.63;95589.38;4976774;28;20030;-51
2022/01/22 10:48:57;;;;;;;8.63;1.70;;;;;;;25.00;31.06;95592.56;5003809;28;20049;-52
2022/01/22 10:51:23;;;;;;;8.15;1.50;;;;;;;25.00;31.02;95588.06;4987328;28;20045;-50
2022/01/22 10:53:50;;;;;;;7.28;1.90;;;;;;;24.94;31.35;95584.56;4992292;28;20034;-51
2022/01/22 10:56:20;;;;;;;7.57;1.50;;;;;;;24.93;32.14;95585.63;4994078;28;20030;-48
2022/01/22 10:59:16;;;;;;;6.40;1.63;;;;;;;25.05;32.54;95571.31;4979168;28;20046;-51
2022/01/22 11:01:50;;;;;;;6.00;1.77;;;;;;;24.98;32.89;95569.69;4989163;28;20108;-49
2022/01/22 11:04:43;;;;;;;7.07;1.60;;;;;;;25.04;32.68;95569.72;4992735;28;20088;-51
2022/01/22 11:07:26;;;;;;;9.38;1.77;;;;;;;25.13;32.41;95565.47;4991968;28;20109;-52
2022/01/22 11:09:52;;;;;;;5.20;1.50;;;;;;;25.09;32.28;95565.22;4992963;28;20116;-51
2022/01/22 11:12:18;;;;;;;6.28;1.50;;;;;;;25.17;32.71;95559.38;4999731;28;20046;-52
2022/01/22 11:14:44;;;;;;;7.60;1.75;;;;;;;25.13;32.59;95557.47;4975705;28;20046;-51
2022/01/22 11:17:13;;;;;;;8.25;1.77;;;;;;;25.15;32.49;95568.66;4984455;28;20049;-52
2022/01/22 11:19:39;;;;;;;5.25;1.60;;;;;;;25.15;32.30;95566.00;4988206;28;20056;-51
2022/01/22 11:22:10;;;;;;;6.40;1.58;;;;;;;25.17;32.83;95571.91;4977827;28;20042;-53
2022/01/22 11:24:42;;;;;;;5.88;1.60;;;;;;;25.18;32.68;95568.94;4977279;28;20050;-51
2022/01/22 11:27:09;;;;;;;5.65;1.52;;;;;;;25.20;32.30;95563.38;4979241;28;20046;-52
2022/01/22 11:29:39;;;;;;;8.18;1.73;;;;;;;25.21;32.16;95567.66;4959574;28;20038;-49
2022/01/22 11:32:12;;;;;;;10.70;1.90;;;;;;;25.20;32.85;95575.88;4977037;28;20043;-52
2022/01/22 11:34:38;;;;;;;5.63;1.50;;;;;;;25.27;32.28;95577.28;4977582;28;20327;-54
2022/01/22 11:37:32;;;;;;;5.68;1.55;;;;;;;25.24;32.54;95563.69;4991114;28;20109;-51
2022/01/22 11:40:20;;;;;;;7.43;1.55;;;;;;;25.30;32.27;95558.13;4989196;28;20038;-52
2022/01/22 11:43:23;;;;;;;6.55;1.70;;;;;;;25.28;32.72;95552.22;4992669;28;20041;-52
2022/01/22 11:45:50;;;;;;;7.25;1.50;;;;;;;25.30;32.33;95560.78;4996585;28;20042;-51
2022/01/22 11:48:26;;;;;;;5.60;1.60;;;;;;;25.28;32.52;95552.22;4986106;28;20030;-52
2022/01/22 11:51:20;;;;;;;7.97;1.98;;;;;;;25.40;32.39;95562.66;5002690;28;20062;-51
2022/01/22 11:53:56;;;;;;;7.35;1.98;;;;;;;25.30;32.38;95559.97;4972806;28;20057;-52
2022/01/22 11:56:28;;;;;;;5.35;2.13;;;;;;;25.32;32.51;95550.66;5010317;28;20050;-53
2022/01/22 11:59:00;;;;;;;4.80;1.70;;;;;;;25.26;32.68;95562.34;4998902;28;20049;-51
2022/01/22 12:01:53;;;;;;;5.43;1.92;;;;;;;25.32;33.10;95563.16;5003970;28;20049;-54
2022/01/22 12:04:26;;;;;;;9.27;2.40;;;;;;;25.23;33.05;95562.09;5014902;28;20085;-51
2022/01/22 12:07:03;;;;;;;7.32;1.80;;;;;;;25.23;33.12;95565.56;4993133;28;20064;-52
2022/01/22 12:09:33;;;;;;;8.77;2.20;;;;;;;25.24;33.14;95561.81;5003814;28;20124;-54
2022/01/22 12:15:04;;;;;;;7.88;1.98;;;;;;;25.35;32.87;95552.00;5005775;28;20064;-54
2022/01/22 12:23:31;;;;;;;6.57;1.98;;;;;;;25.25;32.67;95506.72;4968100;28;20048;-53
2022/01/22 12:25:57;;;;;;;9.10;2.03;;;;;;;25.32;32.83;95500.09;5018841;28;20029;-52
2022/01/22 12:28:33;;;;;;;7.78;1.80;;;;;;;25.29;33.05;95505.94;4986943;28;20076;-53
2022/01/22 12:31:16;;;;;;;9.52;2.13;;;;;;;25.31;33.00;95516.31;4988690;28;20065;-53
2022/01/22 12:33:41;;;;;;;6.03;1.90;;;;;;;25.31;32.74;95517.09;4977411;28;20042;-53
2022/01/22 12:36:17;;;;;;;10.38;1.80;;;;;;;25.33;32.82;95520.31;4992865;28;20053;-51
2022/01/22 12:38:51;;;;;;;6.70;1.92;;;;;;;25.42;32.84;95509.13;4984248;28;20034;-48
2022/01/22 12:41:31;;;;;;;7.57;2.15;;;;;;;25.39;32.92;95504.34;4992386;28;20034;-51
2022/01/22 12:46:53;;;;;;;8.13;1.90;;;;;;;25.45;32.81;95508.59;4990437;28;20224;-49
2022/01/22 12:49:28;;;;;;;8.30;1.70;;;;;;;25.46;32.89;95511.00;4989370;28;20038;-52
2022/01/22 12:51:55;;;;;;;6.35;1.70;;;;;;;25.47;32.90;95511.81;5017287;28;20046;-51
2022/01/22 12:54:43;;;;;;;6.75;1.70;;;;;;;25.55;32.63;95508.59;4986521;28;20038;-53
2022/01/22 12:57:14;;;;;;;5.35;1.50;;;;;;;25.46;32.59;95502.22;4994558;28;20026;-51
2022/01/22 13:02:37;;;;;;;6.97;1.55;;;;;;;25.50;32.58;95492.66;4988854;28;20045;-53
2022/01/22 13:05:03;;;;;;;4.28;1.70;;;;;;;25.51;32.96;95492.38;4990008;28;20053;-52
2022/01/22 13:07:53;;;;;;;6.93;1.92;;;;;;;25.49;32.88;95489.19;4979732;28;20038;-51
2022/01/22 13:10:22;;;;;;;6.07;1.58;;;;;;;25.64;32.65;95493.69;4986543;28;20030;-53
2022/01/22 13:12:47;;;;;;;6.00;1.70;;;;;;;25.59;32.56;95485.72;4983014;28;20128;-52
2022/01/22 13:15:16;;;;;;;7.18;1.70;;;;;;;25.59;32.53;95491.06;4992451;28;20029;-53
2022/01/22 13:17:50;;;;;;;6.07;1.48;;;;;;;25.62;32.31;95490.50;4995320;28;20100;-51
2022/01/22 13:20:34;;;;;;;6.60;1.83;;;;;;;25.62;32.38;95495.03;4991488;28;20034;-49
2022/01/22 13:23:02;;;;;;;5.93;1.80;;;;;;;25.66;31.96;95504.88;4992184;28;20057;-52
2022/01/22 13:25:33;;;;;;;7.18;2.08;;;;;;;25.68;32.30;95499.31;4983813;28;20129;-52
2022/01/22 13:28:04;;;;;;;5.68;2.13;;;;;;;25.66;32.21;95506.75;4991834;28;20045;-51
2022/01/22 13:30:34;;;;;;;6.13;1.70;;;;;;;25.65;32.20;95503.31;4994642;28;20091;-50